sensor_id;sensor_type;location;lat;lon;timestamp;P1;durP1;ratioP1;P2;durP2;ratioP2
47812;SDS011;34221;45.296;9.516;2022-12-07T00:00:01;25.30;;;14.95;;
47812;SDS011;34221;45.296;9.516;2022-12-07T00:00:19;24.17;;;15.05;;
47812;SDS011;34221;45.296;9.516;2022-12-07T00:00:35;19.80;;;14.65;;
47812;SDS011;34221;45.296;9.516;2022-12-07T00:00:50;19.58;;;14.85;;
47812;SDS011;34221;45.296;9.516;2022-12-07T00:01:06;18.50;;;14.90;;
47812;SDS011;34221;45.296;9.516;2022-12-07T00:01:24;18.13;;;14.13;;
47812;SDS011;34221;45.296;9.516;2022-12-07T00:01:42;22.17;;;14.85;;
47812;SDS011;34221;45.296;9.516;2022-12-07T00:01:59;24.10;;;14.65;;
47812;SDS011;34221;45.296;9.516;2022-12-07T00:02:14;18.35;;;13.43;;
47812;SDS011;34221;45.296;9.516;2022-12-07T00:02:29;20.58;;;13.52;;
47812;SDS011;34221;45.296;9.516;2022-12-07T00:02:45;21.10;;;14.13;;
47812;SDS011;34221;45.296;9.516;2022-12-07T00:03:00;18.70;;;14.07;;
47812;SDS011;34221;45.296;9.516;2022-12-07T00:03:15;24.08;;;15.63;;
47812;SDS011;34221;45.296;9.516;2022-12-07T00:03:30;25.30;;;16.13;;
47812;SDS011;34221;45.296;9.516;2022-12-07T00:03:46;22.65;;;14.70;;
47812;SDS011;34221;45.296;9.516;2022-12-07T00:04:04;19.85;;;14.18;;
47812;SDS011;34221;45.296;9.516;2022-12-07T00:04:20;18.27;;;14.45;;
47812;SDS011;34221;45.296;9.516;2022-12-07T00:04:35;22.23;;;15.50;;
47812;SDS011;34221;45.296;9.516;2022-12-07T00:04:50;24.92;;;16.52;;
47812;SDS011;34221;45.296;9.516;2022-12-07T00:05:05;23.77;;;15.80;;
47812;SDS011;34221;45.296;9.516;2022-12-07T00:05:21;24.50;;;15.20;;
47812;SDS011;34221;45.296;9.516;2022-12-07T00:05:36;25.20;;;16.05;;
47812;SDS011;34221;45.296;9.516;2022-12-07T00:05:51;21.70;;;15.35;;
47812;SDS011;34221;45.296;9.516;2022-12-07T00:06:07;19.10;;;14.18;;
47812;SDS011;34221;45.296;9.516;2022-12-07T00:06:23;18.80;;;14.20;;
47812;SDS011;34221;45.296;9.516;2022-12-07T00:06:39;18.92;;;15.05;;
47812;SDS011;34221;45.296;9.516;2022-12-07T00:06:57;18.55;;;15.25;;
47812;SDS011;34221;45.296;9.516;2022-12-07T00:07:11;17.80;;;14.67;;
47812;SDS011;34221;45.296;9.516;2022-12-07T00:07:26;18.07;;;14.87;;
47812;SDS011;34221;45.296;9.516;2022-12-07T00:07:41;20.27;;;14.32;;
47812;SDS011;34221;45.296;9.516;2022-12-07T00:07:56;23.60;;;14.23;;
47812;SDS011;34221;45.296;9.516;2022-12-07T00:08:11;26.75;;;15.40;;
47812;SDS011;34221;45.296;9.516;2022-12-07T00:08:26;24.23;;;15.27;;
47812;SDS011;34221;45.296;9.516;2022-12-07T00:08:41;21.13;;;14.50;;
47812;SDS011;34221;45.296;9.516;2022-12-07T00:08:57;21.67;;;13.70;;
47812;SDS011;34221;45.296;9.516;2022-12-07T00:09:13;20.88;;;13.48;;
47812;SDS011;34221;45.296;9.516;2022-12-07T00:09:30;19.60;;;13.93;;
47812;SDS011;34221;45.296;9.516;2022-12-07T00:09:45;18.98;;;14.27;;
47812;SDS011;34221;45.296;9.516;2022-12-07T00:10:00;18.70;;;14.13;;
47812;SDS011;34221;45.296;9.516;2022-12-07T00:10:15;18.83;;;13.65;;
47812;SDS011;34221;45.296;9.516;2022-12-07T00:10:30;18.17;;;13.93;;
47812;SDS011;34221;45.296;9.516;2022-12-07T00:10:48;18.17;;;14.02;;
47812;SDS011;34221;45.296;9.516;2022-12-07T00:11:03;18.35;;;14.20;;
47812;SDS011;34221;45.296;9.516;2022-12-07T00:11:27;17.35;;;13.48;;
47812;SDS011;34221;45.296;9.516;2022-12-07T00:11:43;17.90;;;13.73;;
47812;SDS011;34221;45.296;9.516;2022-12-07T00:11:59;17.65;;;13.32;;
47812;SDS011;34221;45.296;9.516;2022-12-07T00:12:13;18.10;;;13.70;;
47812;SDS011;34221;45.296;9.516;2022-12-07T00:12:28;17.73;;;14.35;;
47812;SDS011;34221;45.296;9.516;2022-12-07T00:12:43;17.73;;;14.27;;
47812;SDS011;34221;45.296;9.516;2022-12-07T00:12:58;19.05;;;14.55;;
47812;SDS011;34221;45.296;9.516;2022-12-07T00:13:13;18.10;;;14.25;;
47812;SDS011;34221;45.296;9.516;2022-12-07T00:13:28;17.73;;;14.50;;
47812;SDS011;34221;45.296;9.516;2022-12-07T00:13:45;18.52;;;14.77;;
47812;SDS011;34221;45.296;9.516;2022-12-07T00:14:03;19.13;;;14.63;;
47812;SDS011;34221;45.296;9.516;2022-12-07T00:14:21;19.27;;;14.63;;
47812;SDS011;34221;45.296;9.516;2022-12-07T00:14:36;20.53;;;14.47;;
47812;SDS011;34221;45.296;9.516;2022-12-07T00:15:17;22.13;;;15.15;;
47812;SDS011;34221;45.296;9.516;2022-12-07T00:15:33;23.77;;;15.02;;
47812;SDS011;34221;45.296;9.516;2022-12-07T00:15:49;25.00;;;15.55;;
47812;SDS011;34221;45.296;9.516;2022-12-07T00:16:17;22.63;;;15.57;;
47812;SDS011;34221;45.296;9.516;2022-12-07T00:16:34;31.88;;;15.18;;
47812;SDS011;34221;45.296;9.516;2022-12-07T00:16:50;27.42;;;15.15;;
47812;SDS011;34221;45.296;9.516;2022-12-07T00:17:06;35.75;;;16.02;;
47812;SDS011;34221;45.296;9.516;2022-12-07T00:17:21;38.25;;;16.67;;
47812;SDS011;34221;45.296;9.516;2022-12-07T00:17:36;27.02;;;16.27;;
47812;SDS011;34221;45.296;9.516;2022-12-07T00:17:51;20.60;;;14.80;;
47812;SDS011;34221;45.296;9.516;2022-12-07T00:18:06;21.52;;;14.35;;
47812;SDS011;34221;45.296;9.516;2022-12-07T00:18:21;21.95;;;14.80;;
47812;SDS011;34221;45.296;9.516;2022-12-07T00:18:36;21.90;;;15.95;;
47812;SDS011;34221;45.296;9.516;2022-12-07T00:18:52;23.33;;;16.00;;
47812;SDS011;34221;45.296;9.516;2022-12-07T00:19:07;20.45;;;14.73;;
47812;SDS011;34221;45.296;9.516;2022-12-07T00:19:23;20.65;;;14.88;;
47812;SDS011;34221;45.296;9.516;2022-12-07T00:19:38;22.63;;;15.60;;
47812;SDS011;34221;45.296;9.516;2022-12-07T00:19:53;22.52;;;16.00;;
47812;SDS011;34221;45.296;9.516;2022-12-07T00:20:08;20.85;;;15.88;;
47812;SDS011;34221;45.296;9.516;2022-12-07T00:20:23;20.63;;;14.68;;
47812;SDS011;34221;45.296;9.516;2022-12-07T00:20:38;25.20;;;14.95;;
47812;SDS011;34221;45.296;9.516;2022-12-07T00:20:58;27.98;;;15.80;;
47812;SDS011;34221;45.296;9.516;2022-12-07T00:21:19;21.30;;;15.18;;
47812;SDS011;34221;45.296;9.516;2022-12-07T00:21:38;21.35;;;15.75;;
47812;SDS011;34221;45.296;9.516;2022-12-07T00:21:53;21.73;;;15.57;;
47812;SDS011;34221;45.296;9.516;2022-12-07T00:22:08;20.33;;;14.55;;
47812;SDS011;34221;45.296;9.516;2022-12-07T00:22:23;19.73;;;14.27;;
47812;SDS011;34221;45.296;9.516;2022-12-07T00:22:37;20.30;;;14.45;;
47812;SDS011;34221;45.296;9.516;2022-12-07T00:22:52;22.52;;;14.05;;
47812;SDS011;34221;45.296;9.516;2022-12-07T00:23:07;24.90;;;14.10;;
47812;SDS011;34221;45.296;9.516;2022-12-07T00:23:22;23.63;;;14.68;;
47812;SDS011;34221;45.296;9.516;2022-12-07T00:23:37;26.92;;;15.48;;
47812;SDS011;34221;45.296;9.516;2022-12-07T00:23:53;25.35;;;15.18;;
47812;SDS011;34221;45.296;9.516;2022-12-07T00:24:10;19.80;;;14.77;;
47812;SDS011;34221;45.296;9.516;2022-12-07T00:24:26;20.77;;;14.48;;
47812;SDS011;34221;45.296;9.516;2022-12-07T00:24:41;21.50;;;14.10;;
47812;SDS011;34221;45.296;9.516;2022-12-07T00:24:56;20.88;;;14.00;;
47812;SDS011;34221;45.296;9.516;2022-12-07T00:25:11;20.98;;;14.38;;
47812;SDS011;34221;45.296;9.516;2022-12-07T00:25:26;25.10;;;15.93;;
47812;SDS011;34221;45.296;9.516;2022-12-07T00:25:41;25.23;;;15.90;;
47812;SDS011;34221;45.296;9.516;2022-12-07T00:26:02;24.83;;;14.85;;
47812;SDS011;34221;45.296;9.516;2022-12-07T00:26:23;29.83;;;16.13;;
47812;SDS011;34221;45.296;9.516;2022-12-07T00:26:44;25.05;;;15.65;;
47812;SDS011;34221;45.296;9.516;2022-12-07T00:26:59;20.85;;;15.45;;
47812;SDS011;34221;45.296;9.516;2022-12-07T00:27:14;23.02;;;15.93;;
47812;SDS011;34221;45.296;9.516;2022-12-07T00:27:29;21.08;;;15.60;;
47812;SDS011;34221;45.296;9.516;2022-12-07T00:27:44;19.13;;;14.32;;
47812;SDS011;34221;45.296;9.516;2022-12-07T00:27:59;26.80;;;14.50;;
47812;SDS011;34221;45.296;9.516;2022-12-07T00:28:14;33.70;;;16.48;;
47812;SDS011;34221;45.296;9.516;2022-12-07T00:28:29;29.33;;;16.48;;
47812;SDS011;34221;45.296;9.516;2022-12-07T00:28:45;22.45;;;14.77;;
47812;SDS011;34221;45.296;9.516;2022-12-07T00:29:06;18.67;;;14.15;;
47812;SDS011;34221;45.296;9.516;2022-12-07T00:29:27;19.75;;;14.98;;
47812;SDS011;34221;45.296;9.516;2022-12-07T00:29:42;20.35;;;15.00;;
47812;SDS011;34221;45.296;9.516;2022-12-07T00:29:57;19.60;;;14.55;;
47812;SDS011;34221;45.296;9.516;2022-12-07T00:30:12;19.27;;;14.48;;
47812;SDS011;34221;45.296;9.516;2022-12-07T00:30:27;19.08;;;15.05;;
47812;SDS011;34221;45.296;9.516;2022-12-07T00:30:42;19.98;;;14.88;;
47812;SDS011;34221;45.296;9.516;2022-12-07T00:31:31;19.10;;;13.82;;
47812;SDS011;34221;45.296;9.516;2022-12-07T00:31:40;19.92;;;14.73;;
47812;SDS011;34221;45.296;9.516;2022-12-07T00:31:55;17.73;;;14.13;;
47812;SDS011;34221;45.296;9.516;2022-12-07T00:32:10;21.85;;;15.30;;
47812;SDS011;34221;45.296;9.516;2022-12-07T00:32:25;21.88;;;15.32;;
47812;SDS011;34221;45.296;9.516;2022-12-07T00:32:41;19.67;;;15.00;;
47812;SDS011;34221;45.296;9.516;2022-12-07T00:32:55;21.00;;;14.73;;
47812;SDS011;34221;45.296;9.516;2022-12-07T00:33:10;20.30;;;14.75;;
47812;SDS011;34221;45.296;9.516;2022-12-07T00:33:25;19.25;;;14.77;;
47812;SDS011;34221;45.296;9.516;2022-12-07T00:33:42;20.45;;;15.45;;
47812;SDS011;34221;45.296;9.516;2022-12-07T00:33:58;21.15;;;16.00;;
47812;SDS011;34221;45.296;9.516;2022-12-07T00:34:14;21.38;;;15.63;;
47812;SDS011;34221;45.296;9.516;2022-12-07T00:34:33;21.42;;;14.98;;
47812;SDS011;34221;45.296;9.516;2022-12-07T00:34:48;20.13;;;14.82;;
47812;SDS011;34221;45.296;9.516;2022-12-07T00:35:03;20.67;;;15.25;;
47812;SDS011;34221;45.296;9.516;2022-12-07T00:35:18;22.42;;;15.48;;
47812;SDS011;34221;45.296;9.516;2022-12-07T00:35:33;22.38;;;15.93;;
47812;SDS011;34221;45.296;9.516;2022-12-07T00:35:54;22.45;;;15.90;;
47812;SDS011;34221;45.296;9.516;2022-12-07T00:36:14;28.05;;;16.25;;
47812;SDS011;34221;45.296;9.516;2022-12-07T00:36:31;31.67;;;16.92;;
47812;SDS011;34221;45.296;9.516;2022-12-07T00:36:47;29.98;;;16.77;;
47812;SDS011;34221;45.296;9.516;2022-12-07T00:37:03;34.58;;;16.40;;
47812;SDS011;34221;45.296;9.516;2022-12-07T00:37:18;39.00;;;16.42;;
47812;SDS011;34221;45.296;9.516;2022-12-07T00:37:32;31.52;;;16.52;;
47812;SDS011;34221;45.296;9.516;2022-12-07T00:37:47;24.92;;;16.52;;
47812;SDS011;34221;45.296;9.516;2022-12-07T00:38:02;25.67;;;16.80;;
47812;SDS011;34221;45.296;9.516;2022-12-07T00:38:17;25.65;;;16.50;;
47812;SDS011;34221;45.296;9.516;2022-12-07T00:38:34;25.88;;;16.10;;
47812;SDS011;34221;45.296;9.516;2022-12-07T00:38:51;31.85;;;17.17;;
47812;SDS011;34221;45.296;9.516;2022-12-07T00:39:06;33.03;;;17.13;;
47812;SDS011;34221;45.296;9.516;2022-12-07T00:39:21;31.00;;;17.13;;
47812;SDS011;34221;45.296;9.516;2022-12-07T00:39:36;28.02;;;17.13;;
47812;SDS011;34221;45.296;9.516;2022-12-07T00:39:51;27.05;;;17.00;;
47812;SDS011;34221;45.296;9.516;2022-12-07T00:40:06;28.13;;;17.50;;
47812;SDS011;34221;45.296;9.516;2022-12-07T00:40:21;25.55;;;17.33;;
47812;SDS011;34221;45.296;9.516;2022-12-07T00:40:36;23.92;;;17.30;;
47812;SDS011;34221;45.296;9.516;2022-12-07T00:40:58;39.78;;;20.05;;
47812;SDS011;34221;45.296;9.516;2022-12-07T00:41:17;35.22;;;20.25;;
47812;SDS011;34221;45.296;9.516;2022-12-07T00:41:37;31.92;;;18.52;;
47812;SDS011;34221;45.296;9.516;2022-12-07T00:41:52;31.38;;;18.52;;
47812;SDS011;34221;45.296;9.516;2022-12-07T00:42:07;30.65;;;18.45;;
47812;SDS011;34221;45.296;9.516;2022-12-07T00:42:22;29.05;;;18.25;;
47812;SDS011;34221;45.296;9.516;2022-12-07T00:42:37;26.60;;;19.13;;
47812;SDS011;34221;45.296;9.516;2022-12-07T00:42:52;27.17;;;18.90;;
47812;SDS011;34221;45.296;9.516;2022-12-07T00:43:07;28.85;;;17.77;;
47812;SDS011;34221;45.296;9.516;2022-12-07T00:43:22;26.30;;;16.95;;
47812;SDS011;34221;45.296;9.516;2022-12-07T00:43:37;22.80;;;16.23;;
47812;SDS011;34221;45.296;9.516;2022-12-07T00:43:53;28.27;;;16.13;;
47812;SDS011;34221;45.296;9.516;2022-12-07T00:44:08;27.10;;;15.60;;
47812;SDS011;34221;45.296;9.516;2022-12-07T00:44:23;25.42;;;15.70;;
47812;SDS011;34221;45.296;9.516;2022-12-07T00:44:37;30.30;;;16.00;;
47812;SDS011;34221;45.296;9.516;2022-12-07T00:44:53;29.15;;;15.57;;
47812;SDS011;34221;45.296;9.516;2022-12-07T00:45:08;25.90;;;15.35;;
47812;SDS011;34221;45.296;9.516;2022-12-07T00:45:23;25.80;;;15.95;;
47812;SDS011;34221;45.296;9.516;2022-12-07T00:45:38;26.00;;;16.27;;
47812;SDS011;34221;45.296;9.516;2022-12-07T00:45:53;23.38;;;15.45;;
47812;SDS011;34221;45.296;9.516;2022-12-07T00:46:09;22.23;;;15.38;;
47812;SDS011;34221;45.296;9.516;2022-12-07T00:46:25;22.75;;;15.35;;
47812;SDS011;34221;45.296;9.516;2022-12-07T00:46:40;22.20;;;14.82;;
47812;SDS011;34221;45.296;9.516;2022-12-07T00:46:55;23.52;;;15.32;;
47812;SDS011;34221;45.296;9.516;2022-12-07T00:47:10;22.80;;;15.63;;
47812;SDS011;34221;45.296;9.516;2022-12-07T00:47:25;21.02;;;15.55;;
47812;SDS011;34221;45.296;9.516;2022-12-07T00:47:40;22.13;;;15.10;;
47812;SDS011;34221;45.296;9.516;2022-12-07T00:47:55;27.75;;;15.32;;
47812;SDS011;34221;45.296;9.516;2022-12-07T00:48:10;27.55;;;15.52;;
47812;SDS011;34221;45.296;9.516;2022-12-07T00:48:25;21.35;;;15.18;;
47812;SDS011;34221;45.296;9.516;2022-12-07T00:48:40;23.02;;;15.27;;
47812;SDS011;34221;45.296;9.516;2022-12-07T00:48:55;26.73;;;15.40;;
47812;SDS011;34221;45.296;9.516;2022-12-07T00:49:10;29.40;;;15.98;;
47812;SDS011;34221;45.296;9.516;2022-12-07T00:49:25;32.30;;;16.55;;
47812;SDS011;34221;45.296;9.516;2022-12-07T00:49:40;43.45;;;17.10;;
47812;SDS011;34221;45.296;9.516;2022-12-07T00:49:55;44.00;;;16.95;;
47812;SDS011;34221;45.296;9.516;2022-12-07T00:50:10;34.72;;;17.10;;
47812;SDS011;34221;45.296;9.516;2022-12-07T00:50:25;47.40;;;17.83;;
47812;SDS011;34221;45.296;9.516;2022-12-07T00:50:40;47.15;;;17.25;;
47812;SDS011;34221;45.296;9.516;2022-12-07T00:50:55;33.80;;;16.48;;
47812;SDS011;34221;45.296;9.516;2022-12-07T00:51:11;34.30;;;16.95;;
47812;SDS011;34221;45.296;9.516;2022-12-07T00:51:27;29.25;;;16.80;;
47812;SDS011;34221;45.296;9.516;2022-12-07T00:51:42;26.27;;;15.63;;
47812;SDS011;34221;45.296;9.516;2022-12-07T00:51:57;29.83;;;15.25;;
47812;SDS011;34221;45.296;9.516;2022-12-07T00:52:12;29.88;;;15.52;;
47812;SDS011;34221;45.296;9.516;2022-12-07T00:52:27;42.05;;;16.10;;
47812;SDS011;34221;45.296;9.516;2022-12-07T00:52:42;41.83;;;16.77;;
47812;SDS011;34221;45.296;9.516;2022-12-07T00:52:57;26.63;;;16.77;;
47812;SDS011;34221;45.296;9.516;2022-12-07T00:53:13;30.90;;;16.17;;
47812;SDS011;34221;45.296;9.516;2022-12-07T00:53:28;39.88;;;16.38;;
47812;SDS011;34221;45.296;9.516;2022-12-07T00:53:43;65.75;;;18.20;;
47812;SDS011;34221;45.296;9.516;2022-12-07T00:53:59;56.70;;;17.90;;
47812;SDS011;34221;45.296;9.516;2022-12-07T00:54:13;30.52;;;17.58;;
47812;SDS011;34221;45.296;9.516;2022-12-07T00:54:28;32.78;;;17.50;;
47812;SDS011;34221;45.296;9.516;2022-12-07T00:54:43;34.88;;;16.83;;
47812;SDS011;34221;45.296;9.516;2022-12-07T00:54:58;34.65;;;16.92;;
47812;SDS011;34221;45.296;9.516;2022-12-07T00:55:13;31.57;;;16.70;;
47812;SDS011;34221;45.296;9.516;2022-12-07T00:55:32;32.60;;;16.48;;
47812;SDS011;34221;45.296;9.516;2022-12-07T00:55:48;29.73;;;16.02;;
47812;SDS011;34221;45.296;9.516;2022-12-07T00:56:06;27.88;;;16.88;;
47812;SDS011;34221;45.296;9.516;2022-12-07T00:56:24;54.80;;;19.27;;
47812;SDS011;34221;45.296;9.516;2022-12-07T00:56:41;38.78;;;17.98;;
47812;SDS011;34221;45.296;9.516;2022-12-07T00:56:56;33.50;;;17.08;;
47812;SDS011;34221;45.296;9.516;2022-12-07T00:57:11;38.42;;;18.27;;
47812;SDS011;34221;45.296;9.516;2022-12-07T00:57:26;45.08;;;19.20;;
47812;SDS011;34221;45.296;9.516;2022-12-07T00:57:41;54.28;;;18.67;;
47812;SDS011;34221;45.296;9.516;2022-12-07T00:57:56;70.68;;;19.05;;
47812;SDS011;34221;45.296;9.516;2022-12-07T00:58:11;61.97;;;19.00;;
47812;SDS011;34221;45.296;9.516;2022-12-07T00:58:26;46.80;;;19.08;;
47812;SDS011;34221;45.296;9.516;2022-12-07T00:58:41;40.30;;;19.35;;
47812;SDS011;34221;45.296;9.516;2022-12-07T00:58:56;36.47;;;18.98;;
47812;SDS011;34221;45.296;9.516;2022-12-07T00:59:14;36.25;;;17.75;;
47812;SDS011;34221;45.296;9.516;2022-12-07T00:59:29;35.83;;;18.00;;
47812;SDS011;34221;45.296;9.516;2022-12-07T00:59:44;32.75;;;17.92;;
47812;SDS011;34221;45.296;9.516;2022-12-07T00:59:59;30.83;;;17.60;;
47812;SDS011;34221;45.296;9.516;2022-12-07T01:00:14;31.95;;;17.42;;
47812;SDS011;34221;45.296;9.516;2022-12-07T01:00:30;30.85;;;17.15;;
47812;SDS011;34221;45.296;9.516;2022-12-07T01:00:45;38.40;;;18.27;;
47812;SDS011;34221;45.296;9.516;2022-12-07T01:01:00;35.53;;;18.50;;
47812;SDS011;34221;45.296;9.516;2022-12-07T01:01:18;30.50;;;17.70;;
47812;SDS011;34221;45.296;9.516;2022-12-07T01:01:34;34.45;;;17.27;;
47812;SDS011;34221;45.296;9.516;2022-12-07T01:01:51;31.65;;;16.73;;
47812;SDS011;34221;45.296;9.516;2022-12-07T01:02:06;39.83;;;18.02;;
47812;SDS011;34221;45.296;9.516;2022-12-07T01:02:21;46.13;;;19.00;;
47812;SDS011;34221;45.296;9.516;2022-12-07T01:02:36;34.78;;;18.40;;
47812;SDS011;34221;45.296;9.516;2022-12-07T01:02:51;27.40;;;17.92;;
47812;SDS011;34221;45.296;9.516;2022-12-07T01:03:08;30.60;;;18.25;;
47812;SDS011;34221;45.296;9.516;2022-12-07T01:03:25;42.65;;;19.13;;
47812;SDS011;34221;45.296;9.516;2022-12-07T01:03:39;37.07;;;17.70;;
47812;SDS011;34221;45.296;9.516;2022-12-07T01:03:55;22.75;;;15.55;;
47812;SDS011;34221;45.296;9.516;2022-12-07T01:04:10;21.58;;;15.35;;
47812;SDS011;34221;45.296;9.516;2022-12-07T01:04:25;20.95;;;15.80;;
47812;SDS011;34221;45.296;9.516;2022-12-07T01:04:40;27.92;;;16.02;;
47812;SDS011;34221;45.296;9.516;2022-12-07T01:04:54;60.90;;;17.63;;
47812;SDS011;34221;45.296;9.516;2022-12-07T01:05:09;66.75;;;17.92;;
47812;SDS011;34221;45.296;9.516;2022-12-07T01:05:24;41.78;;;17.33;;
47812;SDS011;34221;45.296;9.516;2022-12-07T01:05:39;34.45;;;16.58;;
47812;SDS011;34221;45.296;9.516;2022-12-07T01:06:03;32.83;;;15.95;;
47812;SDS011;34221;45.296;9.516;2022-12-07T01:06:20;34.92;;;16.35;;
47812;SDS011;34221;45.296;9.516;2022-12-07T01:06:38;37.67;;;16.55;;
47812;SDS011;34221;45.296;9.516;2022-12-07T01:06:53;35.97;;;16.58;;
47812;SDS011;34221;45.296;9.516;2022-12-07T01:07:08;45.33;;;18.05;;
47812;SDS011;34221;45.296;9.516;2022-12-07T01:07:22;45.45;;;18.23;;
47812;SDS011;34221;45.296;9.516;2022-12-07T01:07:37;55.83;;;17.52;;
47812;SDS011;34221;45.296;9.516;2022-12-07T01:07:52;61.75;;;18.15;;
47812;SDS011;34221;45.296;9.516;2022-12-07T01:08:07;53.72;;;18.02;;
47812;SDS011;34221;45.296;9.516;2022-12-07T01:08:23;49.08;;;17.42;;
47812;SDS011;34221;45.296;9.516;2022-12-07T01:08:40;51.97;;;18.10;;
47812;SDS011;34221;45.296;9.516;2022-12-07T01:08:55;48.40;;;17.10;;
47812;SDS011;34221;45.296;9.516;2022-12-07T01:09:10;37.97;;;15.93;;
47812;SDS011;34221;45.296;9.516;2022-12-07T01:09:25;32.67;;;15.30;;
47812;SDS011;34221;45.296;9.516;2022-12-07T01:09:40;35.50;;;15.10;;
47812;SDS011;34221;45.296;9.516;2022-12-07T01:09:55;47.38;;;15.57;;
47812;SDS011;34221;45.296;9.516;2022-12-07T01:10:10;46.60;;;15.57;;
47812;SDS011;34221;45.296;9.516;2022-12-07T01:10:25;39.00;;;14.88;;
47812;SDS011;34221;45.296;9.516;2022-12-07T01:10:40;47.25;;;14.80;;
47812;SDS011;34221;45.296;9.516;2022-12-07T01:11:09;59.50;;;15.20;;
47812;SDS011;34221;45.296;9.516;2022-12-07T01:11:30;35.35;;;15.40;;
47812;SDS011;34221;45.296;9.516;2022-12-07T01:11:45;39.65;;;14.80;;
47812;SDS011;34221;45.296;9.516;2022-12-07T01:12:00;34.38;;;13.98;;
47812;SDS011;34221;45.296;9.516;2022-12-07T01:12:15;28.05;;;14.48;;
47812;SDS011;34221;45.296;9.516;2022-12-07T01:12:30;28.55;;;15.02;;
47812;SDS011;34221;45.296;9.516;2022-12-07T01:12:45;29.35;;;14.70;;
47812;SDS011;34221;45.296;9.516;2022-12-07T01:12:59;35.13;;;15.07;;
47812;SDS011;34221;45.296;9.516;2022-12-07T01:13:15;38.38;;;15.57;;
47812;SDS011;34221;45.296;9.516;2022-12-07T01:13:30;44.53;;;16.33;;
47812;SDS011;34221;45.296;9.516;2022-12-07T01:13:49;47.13;;;16.17;;
47812;SDS011;34221;45.296;9.516;2022-12-07T01:14:05;39.60;;;15.13;;
47812;SDS011;34221;45.296;9.516;2022-12-07T01:14:20;34.10;;;15.45;;
47812;SDS011;34221;45.296;9.516;2022-12-07T01:14:35;34.47;;;15.90;;
47812;SDS011;34221;45.296;9.516;2022-12-07T01:14:50;28.42;;;15.40;;
47812;SDS011;34221;45.296;9.516;2022-12-07T01:15:05;20.55;;;14.32;;
47812;SDS011;34221;45.296;9.516;2022-12-07T01:15:22;20.23;;;13.20;;
47812;SDS011;34221;45.296;9.516;2022-12-07T01:15:40;21.17;;;13.43;;
47812;SDS011;34221;45.296;9.516;2022-12-07T01:15:57;21.27;;;13.85;;
47812;SDS011;34221;45.296;9.516;2022-12-07T01:16:15;35.60;;;14.00;;
47812;SDS011;34221;45.296;9.516;2022-12-07T01:17:06;47.55;;;15.63;;
47812;SDS011;34221;45.296;9.516;2022-12-07T01:17:21;50.60;;;16.88;;
47812;SDS011;34221;45.296;9.516;2022-12-07T01:17:36;45.35;;;16.85;;
47812;SDS011;34221;45.296;9.516;2022-12-07T01:17:51;39.33;;;15.65;;
47812;SDS011;34221;45.296;9.516;2022-12-07T01:18:06;38.83;;;15.27;;
47812;SDS011;34221;45.296;9.516;2022-12-07T01:18:21;33.75;;;14.38;;
47812;SDS011;34221;45.296;9.516;2022-12-07T01:18:36;36.93;;;15.63;;
47812;SDS011;34221;45.296;9.516;2022-12-07T01:18:53;42.45;;;16.02;;
47812;SDS011;34221;45.296;9.516;2022-12-07T01:19:10;47.20;;;15.63;;
47812;SDS011;34221;45.296;9.516;2022-12-07T01:19:25;43.90;;;15.45;;
47812;SDS011;34221;45.296;9.516;2022-12-07T01:19:40;36.28;;;15.23;;
47812;SDS011;34221;45.296;9.516;2022-12-07T01:19:55;36.70;;;15.40;;
47812;SDS011;34221;45.296;9.516;2022-12-07T01:20:10;30.70;;;15.50;;
47812;SDS011;34221;45.296;9.516;2022-12-07T01:20:26;30.08;;;15.18;;
47812;SDS011;34221;45.296;9.516;2022-12-07T01:20:41;34.92;;;15.07;;
47812;SDS011;34221;45.296;9.516;2022-12-07T01:21:15;41.60;;;15.00;;
47812;SDS011;34221;45.296;9.516;2022-12-07T01:21:34;62.25;;;15.98;;
47812;SDS011;34221;45.296;9.516;2022-12-07T01:21:51;57.22;;;17.15;;
47812;SDS011;34221;45.296;9.516;2022-12-07T01:22:06;43.97;;;17.10;;
47812;SDS011;34221;45.296;9.516;2022-12-07T01:22:21;47.53;;;16.83;;
47812;SDS011;34221;45.296;9.516;2022-12-07T01:22:37;60.30;;;17.27;;
47812;SDS011;34221;45.296;9.516;2022-12-07T01:22:53;49.72;;;16.13;;
47812;SDS011;34221;45.296;9.516;2022-12-07T01:23:08;34.88;;;15.02;;
47812;SDS011;34221;45.296;9.516;2022-12-07T01:23:23;39.03;;;15.50;;
47812;SDS011;34221;45.296;9.516;2022-12-07T01:23:38;39.03;;;16.73;;
47812;SDS011;34221;45.296;9.516;2022-12-07T01:23:53;45.08;;;16.73;;
47812;SDS011;34221;45.296;9.516;2022-12-07T01:24:09;53.45;;;16.38;;
47812;SDS011;34221;45.296;9.516;2022-12-07T01:24:25;46.75;;;16.15;;
47812;SDS011;34221;45.296;9.516;2022-12-07T01:24:40;41.08;;;15.45;;
47812;SDS011;34221;45.296;9.516;2022-12-07T01:24:55;44.90;;;16.27;;
47812;SDS011;34221;45.296;9.516;2022-12-07T01:25:10;45.33;;;17.17;;
47812;SDS011;34221;45.296;9.516;2022-12-07T01:25:26;39.10;;;16.90;;
47812;SDS011;34221;45.296;9.516;2022-12-07T01:25:41;42.88;;;17.15;;
47812;SDS011;34221;45.296;9.516;2022-12-07T01:25:57;44.45;;;17.15;;
47812;SDS011;34221;45.296;9.516;2022-12-07T01:26:14;45.20;;;16.77;;
47812;SDS011;34221;45.296;9.516;2022-12-07T01:26:35;69.72;;;17.25;;
47812;SDS011;34221;45.296;9.516;2022-12-07T01:26:50;66.70;;;17.50;;
47812;SDS011;34221;45.296;9.516;2022-12-07T01:27:05;49.40;;;17.02;;
47812;SDS011;34221;45.296;9.516;2022-12-07T01:27:20;50.53;;;18.30;;
47812;SDS011;34221;45.296;9.516;2022-12-07T01:27:35;44.40;;;17.98;;
47812;SDS011;34221;45.296;9.516;2022-12-07T01:27:51;37.83;;;16.20;;
47812;SDS011;34221;45.296;9.516;2022-12-07T01:28:05;31.92;;;15.98;;
47812;SDS011;34221;45.296;9.516;2022-12-07T01:28:20;38.50;;;16.50;;
47812;SDS011;34221;45.296;9.516;2022-12-07T01:28:35;41.97;;;17.20;;
47812;SDS011;34221;45.296;9.516;2022-12-07T01:28:51;52.88;;;18.13;;
47812;SDS011;34221;45.296;9.516;2022-12-07T01:29:09;48.75;;;17.98;;
47812;SDS011;34221;45.296;9.516;2022-12-07T01:29:24;35.92;;;16.52;;
47812;SDS011;34221;45.296;9.516;2022-12-07T01:29:39;39.13;;;15.88;;
47812;SDS011;34221;45.296;9.516;2022-12-07T01:29:53;35.08;;;15.93;;
47812;SDS011;34221;45.296;9.516;2022-12-07T01:30:09;32.83;;;15.75;;
47812;SDS011;34221;45.296;9.516;2022-12-07T01:30:25;49.80;;;17.00;;
47812;SDS011;34221;45.296;9.516;2022-12-07T01:30:40;40.95;;;16.70;;
47812;SDS011;34221;45.296;9.516;2022-12-07T01:31:03;31.67;;;16.10;;
47812;SDS011;34221;45.296;9.516;2022-12-07T01:31:25;30.95;;;16.63;;
47812;SDS011;34221;45.296;9.516;2022-12-07T01:31:42;39.45;;;16.83;;
47812;SDS011;34221;45.296;9.516;2022-12-07T01:31:57;48.75;;;16.63;;
47812;SDS011;34221;45.296;9.516;2022-12-07T01:32:12;43.55;;;16.63;;
47812;SDS011;34221;45.296;9.516;2022-12-07T01:32:27;33.60;;;16.27;;
47812;SDS011;34221;45.296;9.516;2022-12-07T01:32:43;40.40;;;16.55;;
47812;SDS011;34221;45.296;9.516;2022-12-07T01:32:58;40.05;;;17.08;;
47812;SDS011;34221;45.296;9.516;2022-12-07T01:33:12;31.60;;;16.40;;
47812;SDS011;34221;45.296;9.516;2022-12-07T01:33:28;27.02;;;15.43;;
47812;SDS011;34221;45.296;9.516;2022-12-07T01:33:47;33.03;;;16.02;;
47812;SDS011;34221;45.296;9.516;2022-12-07T01:34:07;37.00;;;15.57;;
47812;SDS011;34221;45.296;9.516;2022-12-07T01:34:23;36.70;;;15.98;;